Time;durP1;ratioP1;P1;durP2;ratioP2;P2;SDS_P1;SDS_P2;PMS_P1;PMS_P2;Temp;Humidity;BMP_temperature;BMP_pressure;BME280_temperature;BME280_humidity;BME280_pressure;Samples;Min_cycle;Max_cycle;Signal;HPM_P1;HPM_P2
2024/01/06 00:01:56;;;;;;;17.03;12.47;;;8.60;99.90;;;;;;5134494;27;20935;-70
2024/01/06 00:04:23;;;;;;;18.73;13.17;;;8.50;99.90;;;;;;5134873;27;20442;-71
2024/01/06 00:06:49;;;;;;;13.80;12.30;;;8.50;99.90;;;;;;5134740;27;20470;-71
2024/01/06 00:09:16;;;;;;;15.57;12.80;;;8.50;99.90;;;;;;5116315;27;20877;-70
2024/01/06 00:11:43;;;;;;;15.57;13.40;;;8.50;99.90;;;;;;5134808;27;20461;-71
2024/01/06 00:14:11;;;;;;;17.10;13.67;;;8.50;99.90;;;;;;5116450;28;20489;-71
2024/01/06 00:16:38;;;;;;;18.00;14.00;;;8.50;99.90;;;;;;5134521;27;20923;-71
2024/01/06 00:19:04;;;;;;;18.03;14.07;;;8.50;99.90;;;;;;5134439;27;20806;-71
2024/01/06 00:21:31;;;;;;;19.77;13.70;;;8.40;99.90;;;;;;5135203;27;20453;-71
2024/01/06 00:23:58;;;;;;;15.70;13.33;;;8.40;99.90;;;;;;5133647;27;20446;-71
2024/01/06 00:26:25;;;;;;;16.33;12.30;;;8.40;99.90;;;;;;5134612;27;20578;-71
2024/01/06 00:28:52;;;;;;;20.00;13.77;;;8.40;99.90;;;;;;5116417;28;20537;-71
2024/01/06 00:31:20;;;;;;;18.00;14.30;;;8.50;99.90;;;;;;5134820;28;20472;-71
2024/01/06 00:33:47;;;;;;;19.47;14.50;;;8.50;99.90;;;;;;5134966;28;20438;-70
2024/01/06 00:36:14;;;;;;;17.60;13.87;;;8.50;99.90;;;;;;5134838;28;20871;-70
2024/01/06 00:38:40;;;;;;;17.30;14.10;;;8.40;99.90;;;;;;5134509;28;20442;-70
2024/01/06 00:41:07;;;;;;;17.57;15.10;;;8.40;99.90;;;;;;5134454;28;20477;-71
2024/01/06 00:43:34;;;;;;;23.57;15.03;;;8.40;99.90;;;;;;5134534;28;20508;-71
2024/01/06 00:46:00;;;;;;;19.00;15.00;;;8.40;99.90;;;;;;5134190;28;20846;-71
2024/01/06 00:48:29;;;;;;;20.37;14.83;;;8.40;99.90;;;;;;5134544;28;20442;-71
2024/01/06 00:50:55;;;;;;;19.80;14.63;;;8.40;99.90;;;;;;5134016;28;20511;-70
2024/01/06 00:53:22;;;;;;;21.40;15.70;;;8.40;99.90;;;;;;5115814;28;20445;-71
2024/01/06 00:55:49;;;;;;;18.73;14.27;;;8.40;99.90;;;;;;5133852;28;20950;-71
2024/01/06 00:58:16;;;;;;;16.73;14.93;;;8.50;99.90;;;;;;5133362;28;20446;-71
2024/01/06 01:00:43;;;;;;;21.20;16.30;;;8.50;99.90;;;;;;5128888;28;20470;-71
2024/01/06 01:03:10;;;;;;;19.23;16.00;;;8.50;99.90;;;;;;5137531;28;20446;-71
2024/01/06 01:05:38;;;;;;;22.07;16.33;;;8.50;99.90;;;;;;5135711;28;20501;-70
2024/01/06 01:08:05;;;;;;;20.07;14.83;;;8.40;99.90;;;;;;5134877;28;21014;-71
2024/01/06 01:10:32;;;;;;;21.50;15.30;;;8.50;99.90;;;;;;5134915;28;20464;-70
2024/01/06 01:12:59;;;;;;;23.53;16.30;;;8.40;99.90;;;;;;5136526;28;20504;-71
2024/01/06 01:15:25;;;;;;;24.27;17.87;;;8.50;99.90;;;;;;5135168;28;20437;-71
2024/01/06 01:17:52;;;;;;;22.47;16.87;;;8.50;99.90;;;;;;5134260;28;20446;-71
2024/01/06 01:20:19;;;;;;;22.37;16.90;;;8.50;99.90;;;;;;5134285;28;20469;-71
2024/01/06 01:22:48;;;;;;;23.23;17.97;;;8.60;99.90;;;;;;5134976;28;20532;-71
2024/01/06 01:25:15;;;;;;;24.80;18.40;;;8.60;99.90;;;;;;5134279;28;20445;-70
2024/01/06 01:27:41;;;;;;;21.93;16.60;;;8.60;99.90;;;;;;5134232;28;20477;-71
2024/01/06 01:30:09;;;;;;;28.27;19.27;;;8.60;99.90;;;;;;5133901;28;20971;-71
2024/01/06 01:32:36;;;;;;;26.17;18.80;;;8.60;99.90;;;;;;5116027;28;20446;-71
2024/01/06 01:35:03;;;;;;;23.77;18.73;;;8.60;99.90;;;;;;5134722;27;20499;-71
2024/01/06 01:37:30;;;;;;;25.63;18.03;;;8.70;99.90;;;;;;5137671;27;20437;-71
2024/01/06 01:39:58;;;;;;;25.77;19.97;;;8.70;99.90;;;;;;5137657;27;20460;-71
2024/01/06 01:42:24;;;;;;;28.23;20.00;;;8.70;99.90;;;;;;5119027;27;21030;-71
2024/01/06 01:44:51;;;;;;;30.43;20.23;;;8.70;99.90;;;;;;5137613;27;20442;-71
2024/01/06 01:47:19;;;;;;;28.10;20.27;;;8.80;99.90;;;;;;5137482;27;20473;-71
2024/01/06 01:49:47;;;;;;;31.73;21.40;;;8.80;99.90;;;;;;5137589;27;20894;-71
2024/01/06 01:52:14;;;;;;;32.33;23.10;;;8.80;99.90;;;;;;5137460;27;20438;-71
2024/01/06 01:54:42;;;;;;;28.60;21.17;;;8.80;99.90;;;;;;5136877;27;20817;-71
2024/01/06 01:57:11;;;;;;;33.07;21.60;;;8.80;99.90;;;;;;5137140;27;20453;-71
2024/01/06 01:59:38;;;;;;;32.70;21.23;;;8.80;99.90;;;;;;5137253;27;20461;-71
2024/01/06 02:02:05;;;;;;;30.67;22.47;;;8.80;99.90;;;;;;5137106;27;20943;-71
2024/01/06 02:04:32;;;;;;;34.67;23.03;;;8.80;99.90;;;;;;5137410;27;20465;-71
2024/01/06 02:06:59;;;;;;;30.70;21.77;;;8.80;99.90;;;;;;5136930;27;20481;-71
2024/01/06 02:09:28;;;;;;;30.90;22.87;;;8.80;99.90;;;;;;5136910;27;20825;-70
2024/01/06 02:11:55;;;;;;;33.60;22.00;;;8.80;99.90;;;;;;5136743;27;20484;-71
2024/01/06 02:14:24;;;;;;;33.27;22.70;;;8.80;99.90;;;;;;5137176;27;20806;-71
2024/01/06 02:16:50;;;;;;;33.77;22.30;;;8.80;99.90;;;;;;5137168;27;20445;-71
2024/01/06 02:19:17;;;;;;;33.17;23.47;;;8.80;99.90;;;;;;5136717;27;20458;-71
2024/01/06 02:21:45;;;;;;;28.60;20.10;;;8.80;99.90;;;;;;5118419;27;20969;-71
2024/01/06 02:24:13;;;;;;;30.90;22.97;;;8.80;99.90;;;;;;5136844;27;20438;-71
2024/01/06 02:26:40;;;;;;;31.20;22.20;;;8.80;99.90;;;;;;5136727;27;20445;-71
2024/01/06 02:29:07;;;;;;;32.40;22.97;;;8.80;99.90;;;;;;5136857;27;20445;-71
2024/01/06 02:31:34;;;;;;;34.03;22.70;;;8.80;99.90;;;;;;5136491;27;20464;-71
2024/01/06 02:34:00;;;;;;;37.00;23.50;;;8.80;99.90;;;;;;5136555;27;20457;-71
2024/01/06 02:36:27;;;;;;;35.53;23.07;;;8.80;99.90;;;;;;5136512;27;20438;-71
2024/01/06 02:38:57;;;;;;;35.87;23.57;;;8.80;99.90;;;;;;5136399;27;20438;-71
2024/01/06 02:41:25;;;;;;;33.07;23.57;;;8.80;99.90;;;;;;5136610;27;20449;-71
2024/01/06 02:43:51;;;;;;;36.70;23.87;;;8.80;99.90;;;;;;5136508;27;20434;-71
2024/01/06 02:46:19;;;;;;;34.90;24.00;;;8.80;99.90;;;;;;5136017;27;20491;-71
2024/01/06 02:48:46;;;;;;;33.93;23.73;;;8.80;99.90;;;;;;5135901;27;20482;-71
2024/01/06 02:51:13;;;;;;;35.50;24.50;;;8.80;99.90;;;;;;5135812;27;20994;-71
2024/01/06 02:53:40;;;;;;;36.20;25.23;;;8.80;99.90;;;;;;5135873;27;20863;-71
2024/01/06 02:56:10;;;;;;;38.20;26.57;;;8.80;99.90;;;;;;5135687;27;20791;-72
2024/01/06 02:58:40;;;;;;;35.93;25.00;;;8.80;99.90;;;;;;5136231;27;20433;-71
2024/01/06 03:01:07;;;;;;;36.03;25.37;;;8.70;99.90;;;;;;5135787;27;20466;-70
2024/01/06 03:03:34;;;;;;;33.77;23.03;;;8.60;99.90;;;;;;5135968;27;20434;-71
2024/01/06 03:06:01;;;;;;;43.93;27.50;;;8.60;99.90;;;;;;5136216;27;20442;-71
2024/01/06 03:08:31;;;;;;;36.70;24.90;;;8.70;99.90;;;;;;5117357;27;21012;-71
2024/01/06 03:10:58;;;;;;;41.30;25.67;;;8.70;99.90;;;;;;5135780;27;20461;-71
2024/01/06 03:13:26;;;;;;;41.00;26.10;;;8.70;99.90;;;;;;5117424;27;20450;-71
2024/01/06 03:15:54;;;;;;;34.77;22.90;;;8.70;99.90;;;;;;5139503;27;20448;-71
2024/01/06 03:18:21;;;;;;;38.47;25.60;;;8.70;99.90;;;;;;5148104;27;20960;-71
2024/01/06 03:20:47;;;;;;;34.80;22.97;;;8.70;99.90;;;;;;5138266;27;20454;-71
2024/01/06 03:23:15;;;;;;;35.30;24.20;;;8.70;99.90;;;;;;5137489;27;20442;-71
2024/01/06 03:25:42;;;;;;;37.27;25.27;;;8.70;99.90;;;;;;5136277;27;20449;-71
2024/01/06 03:28:09;;;;;;;41.10;25.07;;;8.70;99.90;;;;;;5136594;27;20482;-71
2024/01/06 03:30:36;;;;;;;34.30;24.80;;;8.70;99.90;;;;;;5117444;27;20988;-70
2024/01/06 03:33:05;;;;;;;36.80;26.30;;;8.70;99.90;;;;;;5136068;27;20464;-71
2024/01/06 03:35:31;;;;;;;41.13;26.10;;;8.70;99.90;;;;;;5135777;27;20434;-70
2024/01/06 03:37:58;;;;;;;35.13;25.57;;;8.70;99.90;;;;;;5135541;27;20442;-71
2024/01/06 03:40:25;;;;;;;36.70;24.83;;;8.70;99.90;;;;;;5117620;27;20454;-70
2024/01/06 03:42:53;;;;;;;35.87;24.47;;;8.70;99.90;;;;;;5135608;27;20438;-70
2024/01/06 03:45:20;;;;;;;36.73;24.67;;;8.60;99.90;;;;;;5136145;27;20442;-70
2024/01/06 03:47:47;;;;;;;38.33;26.20;;;8.60;99.90;;;;;;5137845;27;20481;-70
2024/01/06 03:50:15;;;;;;;34.40;24.27;;;8.70;99.90;;;;;;5143536;27;20470;-70
2024/01/06 03:52:42;;;;;;;36.87;25.07;;;8.70;99.90;;;;;;5143398;27;20442;-70
2024/01/06 03:55:09;;;;;;;37.87;25.73;;;8.70;99.90;;;;;;5142036;27;20438;-71
2024/01/06 03:57:36;;;;;;;34.40;23.97;;;8.80;99.90;;;;;;5142390;27;20955;-70
2024/01/06 04:00:03;;;;;;;34.27;23.20;;;8.80;99.90;;;;;;5141082;27;20462;-69
2024/01/06 04:02:30;;;;;;;34.57;23.60;;;8.80;99.90;;;;;;5140339;27;20951;-70
2024/01/06 04:04:56;;;;;;;31.23;20.83;;;8.80;99.90;;;;;;5140839;27;20442;-70
2024/01/06 04:07:25;;;;;;;31.53;20.07;;;8.80;99.90;;;;;;5139659;27;20490;-71
2024/01/06 04:09:52;;;;;;;21.40;15.67;;;8.80;99.90;;;;;;5138294;27;20462;-69
2024/01/06 04:12:19;;;;;;;21.73;14.93;;;8.70;99.90;;;;;;5138281;27;20442;-70
2024/01/06 04:14:45;;;;;;;21.27;13.57;;;8.60;99.90;;;;;;5137745;27;20441;-70
2024/01/06 04:17:14;;;;;;;20.50;14.37;;;8.50;99.90;;;;;;5137857;27;20445;-70
2024/01/06 04:19:40;;;;;;;21.00;14.10;;;8.50;99.90;;;;;;5137406;27;20470;-70
2024/01/06 04:22:07;;;;;;;20.20;12.67;;;8.50;99.90;;;;;;5136087;27;20445;-71
2024/01/06 04:24:37;;;;;;;18.73;12.50;;;8.40;99.90;;;;;;5136727;27;20474;-70
2024/01/06 04:27:04;;;;;;;18.00;12.47;;;8.40;99.90;;;;;;5137290;27;20480;-70
2024/01/06 04:29:31;;;;;;;18.77;11.60;;;8.40;99.90;;;;;;5136702;27;20555;-69
2024/01/06 04:31:59;;;;;;;16.90;11.20;;;8.30;99.90;;;;;;5136899;28;20438;-70
2024/01/06 04:34:26;;;;;;;14.50;9.97;;;8.20;99.90;;;;;;5118107;28;20452;-71
2024/01/06 04:36:52;;;;;;;16.07;10.97;;;8.20;99.90;;;;;;5136355;28;20444;-71
2024/01/06 04:39:19;;;;;;;15.87;10.83;;;8.20;99.90;;;;;;5135682;28;20458;-70
2024/01/06 04:41:47;;;;;;;14.50;10.37;;;8.10;99.90;;;;;;5135855;28;20434;-70
2024/01/06 04:44:14;;;;;;;15.63;10.40;;;8.10;99.90;;;;;;5136065;28;20446;-71
2024/01/06 04:46:41;;;;;;;16.73;10.50;;;8.10;99.90;;;;;;5135545;28;20439;-70
2024/01/06 04:49:07;;;;;;;15.90;9.77;;;8.10;99.90;;;;;;5134947;28;20485;-70
2024/01/06 04:51:34;;;;;;;16.40;10.83;;;8.10;99.90;;;;;;5135119;28;20445;-70
2024/01/06 04:54:01;;;;;;;15.57;9.30;;;8.10;99.90;;;;;;5135307;28;20442;-71
2024/01/06 04:56:27;;;;;;;13.13;8.80;;;8.10;99.90;;;;;;5135296;28;20450;-71
2024/01/06 04:58:57;;;;;;;10.87;8.70;;;8.00;99.90;;;;;;5134776;28;20441;-71
2024/01/06 05:01:24;;;;;;;13.90;9.20;;;8.10;99.90;;;;;;5134752;28;20477;-71
2024/01/06 05:03:50;;;;;;;16.27;9.60;;;8.10;99.90;;;;;;5134953;28;20857;-71
2024/01/06 05:06:20;;;;;;;13.03;9.00;;;8.00;99.90;;;;;;5116854;28;20435;-71
2024/01/06 05:08:47;;;;;;;12.60;9.20;;;8.00;99.90;;;;;;5134721;28;20481;-71
2024/01/06 05:11:14;;;;;;;14.60;10.03;;;8.00;99.90;;;;;;5137511;27;20461;-71
2024/01/06 05:13:41;;;;;;;13.83;8.43;;;8.00;99.90;;;;;;5138890;27;20491;-70
2024/01/06 05:16:09;;;;;;;13.70;9.13;;;8.00;99.90;;;;;;5138959;27;20485;-71
2024/01/06 05:18:36;;;;;;;12.53;9.03;;;8.10;99.90;;;;;;5138883;27;20470;-71
2024/01/06 05:21:03;;;;;;;12.47;8.33;;;8.10;99.90;;;;;;5138471;27;20458;-71
2024/01/06 05:23:30;;;;;;;13.93;8.90;;;8.10;99.90;;;;;;5120092;27;20442;-71
2024/01/06 05:25:57;;;;;;;15.60;10.43;;;8.10;99.90;;;;;;5138344;27;20441;-71
2024/01/06 05:28:24;;;;;;;14.43;9.90;;;8.10;99.90;;;;;;5138264;27;20481;-70
2024/01/06 05:30:51;;;;;;;12.63;9.00;;;8.10;99.90;;;;;;5138275;27;20454;-71
2024/01/06 05:33:19;;;;;;;14.37;9.70;;;8.10;99.90;;;;;;5138083;27;20437;-71
2024/01/06 05:35:46;;;;;;;13.30;8.53;;;8.00;99.90;;;;;;5139216;27;20830;-72
2024/01/06 05:38:13;;;;;;;14.70;10.57;;;8.00;99.90;;;;;;5151789;27;20538;-72
2024/01/06 05:40:40;;;;;;;11.03;8.33;;;8.00;99.90;;;;;;5143587;27;20489;-71
2024/01/06 05:43:06;;;;;;;13.50;9.23;;;8.00;99.90;;;;;;5122696;27;20442;-70
2024/01/06 05:45:33;;;;;;;15.00;10.10;;;8.00;99.90;;;;;;5139016;27;20449;-71
2024/01/06 05:48:00;;;;;;;16.83;9.90;;;8.00;99.90;;;;;;5138065;27;20478;-71
2024/01/06 05:50:28;;;;;;;14.30;9.80;;;8.00;99.90;;;;;;5138252;27;20465;-71
2024/01/06 05:52:55;;;;;;;12.10;8.63;;;8.00;99.90;;;;;;5138652;27;20442;-72
2024/01/06 05:55:22;;;;;;;12.97;9.13;;;8.00;99.90;;;;;;5138221;27;20446;-72
2024/01/06 05:57:49;;;;;;;13.07;9.87;;;8.00;99.90;;;;;;5138768;27;20454;-72
2024/01/06 06:00:17;;;;;;;14.00;9.47;;;8.00;99.90;;;;;;5138242;27;20469;-72
2024/01/06 06:02:44;;;;;;;16.07;9.60;;;7.90;99.90;;;;;;5137687;27;20438;-71
2024/01/06 06:05:10;;;;;;;14.03;9.43;;;7.90;99.90;;;;;;5137992;27;20442;-72
2024/01/06 06:07:39;;;;;;;16.53;10.70;;;8.00;99.90;;;;;;5137645;27;20441;-72
2024/01/06 06:10:08;;;;;;;13.90;9.23;;;7.90;99.90;;;;;;5138228;27;20855;-71
2024/01/06 06:12:35;;;;;;;14.10;9.10;;;8.00;99.90;;;;;;5137677;27;20445;-71
2024/01/06 06:15:03;;;;;;;15.37;10.60;;;8.00;99.90;;;;;;5137526;27;20488;-72
2024/01/06 06:17:30;;;;;;;15.03;9.80;;;8.00;99.90;;;;;;5137561;27;20857;-72
2024/01/06 06:19:57;;;;;;;16.07;9.73;;;8.00;99.90;;;;;;5137196;27;20967;-71
2024/01/06 06:22:25;;;;;;;14.20;8.70;;;8.00;99.90;;;;;;5136140;27;20430;-72
2024/01/06 06:24:54;;;;;;;18.30;10.63;;;8.00;99.90;;;;;;5137387;27;20448;-72
2024/01/06 06:27:20;;;;;;;13.93;9.50;;;8.00;99.90;;;;;;5137335;27;20451;-72
2024/01/06 06:29:47;;;;;;;13.90;9.40;;;8.00;99.90;;;;;;5137106;27;20493;-72
2024/01/06 06:32:14;;;;;;;13.17;9.70;;;8.00;99.90;;;;;;5137528;27;20477;-72
2024/01/06 06:34:42;;;;;;;14.60;9.30;;;7.90;99.90;;;;;;5118826;27;20473;-72
2024/01/06 06:37:09;;;;;;;12.70;8.70;;;8.00;99.90;;;;;;5118550;27;20498;-72
2024/01/06 06:39:36;;;;;;;12.87;9.20;;;8.00;99.90;;;;;;5136055;27;20454;-71
2024/01/06 06:42:04;;;;;;;13.90;9.60;;;7.90;99.90;;;;;;5137557;27;20483;-72
2024/01/06 06:44:31;;;;;;;12.90;8.60;;;7.90;99.90;;;;;;5137431;27;20518;-72
2024/01/06 06:46:58;;;;;;;15.07;9.73;;;7.90;99.90;;;;;;5136209;27;20491;-72
2024/01/06 06:49:25;;;;;;;12.70;9.23;;;7.90;99.90;;;;;;5136343;27;20482;-71
2024/01/06 06:51:52;;;;;;;13.70;8.90;;;7.80;99.90;;;;;;5136510;27;20437;-72
2024/01/06 06:54:19;;;;;;;17.00;9.73;;;7.90;99.90;;;;;;5136261;27;20438;-72
2024/01/06 06:56:46;;;;;;;14.57;10.00;;;7.90;99.90;;;;;;5136201;27;20454;-72
2024/01/06 06:59:14;;;;;;;13.90;9.83;;;7.90;99.90;;;;;;5136355;27;20430;-71
2024/01/06 07:01:41;;;;;;;15.03;10.00;;;7.90;99.90;;;;;;5136521;27;20491;-71
2024/01/06 07:04:08;;;;;;;16.03;10.77;;;7.90;99.90;;;;;;5135738;27;20449;-71
2024/01/06 07:06:36;;;;;;;15.43;9.77;;;7.90;99.90;;;;;;5136349;27;20453;-72
2024/01/06 07:09:04;;;;;;;13.63;8.90;;;7.80;99.90;;;;;;5136072;27;20493;-72
2024/01/06 07:11:31;;;;;;;14.20;9.13;;;7.80;99.90;;;;;;5136359;27;20445;-72
2024/01/06 07:13:57;;;;;;;16.80;9.80;;;7.80;99.90;;;;;;5136100;27;20445;-72
2024/01/06 07:16:25;;;;;;;16.53;11.13;;;7.80;99.90;;;;;;5135981;27;20823;-72
2024/01/06 07:18:52;;;;;;;15.33;9.80;;;7.80;99.90;;;;;;5135840;27;20208;-72
2024/01/06 07:21:18;;;;;;;12.97;9.10;;;7.70;99.90;;;;;;5135734;27;20457;-72
2024/01/06 07:23:46;;;;;;;19.50;11.83;;;7.70;99.90;;;;;;5117422;27;20442;-72
2024/01/06 07:26:13;;;;;;;13.00;9.87;;;7.70;99.90;;;;;;5117756;27;20438;-72
2024/01/06 07:28:40;;;;;;;15.77;10.77;;;7.70;99.90;;;;;;5117357;27;20478;-72
2024/01/06 07:31:06;;;;;;;16.57;11.13;;;7.70;99.90;;;;;;5135601;27;20465;-72
2024/01/06 07:33:34;;;;;;;15.23;10.27;;;7.60;99.90;;;;;;5135065;27;20574;-72
2024/01/06 07:36:01;;;;;;;14.40;10.07;;;7.60;99.90;;;;;;5135568;27;20442;-72
2024/01/06 07:38:30;;;;;;;16.63;10.23;;;7.60;99.90;;;;;;5135268;27;20450;-72
2024/01/06 07:40:57;;;;;;;13.90;9.37;;;7.50;99.90;;;;;;5135519;27;20465;-71
2024/01/06 07:43:24;;;;;;;13.10;8.50;;;7.50;99.90;;;;;;5135127;27;20453;-72
2024/01/06 07:45:51;;;;;;;13.67;9.47;;;7.50;99.90;;;;;;5135159;27;20449;-72
2024/01/06 07:48:17;;;;;;;15.23;9.40;;;7.50;99.90;;;;;;5135331;27;20446;-72
2024/01/06 07:50:46;;;;;;;15.10;9.80;;;7.50;99.90;;;;;;5134964;27;20454;-71
2024/01/06 07:53:13;;;;;;;15.07;9.63;;;7.50;99.90;;;;;;5135055;27;20449;-72
2024/01/06 07:55:40;;;;;;;13.23;9.53;;;7.50;99.90;;;;;;5141779;27;20442;-72
2024/01/06 07:58:07;;;;;;;15.67;9.80;;;7.50;99.90;;;;;;5144096;27;20463;-72
2024/01/06 08:00:34;;;;;;;12.80;8.80;;;7.50;99.90;;;;;;5139591;27;20458;-72
2024/01/06 08:03:02;;;;;;;14.73;10.10;;;7.50;99.90;;;;;;5138297;27;20476;-72
2024/01/06 08:05:29;;;;;;;13.93;10.33;;;7.50;99.90;;;;;;5136452;27;20495;-72
2024/01/06 08:07:57;;;;;;;13.33;8.77;;;7.50;99.90;;;;;;5136307;27;20474;-72
2024/01/06 08:10:23;;;;;;;13.97;9.70;;;7.50;99.90;;;;;;5135197;27;20489;-72
2024/01/06 08:12:50;;;;;;;14.33;9.97;;;7.50;99.90;;;;;;5135631;27;20442;-72
2024/01/06 08:15:17;;;;;;;13.30;9.00;;;7.50;99.90;;;;;;5135576;27;20446;-72
2024/01/06 08:17:44;;;;;;;18.47;11.27;;;7.40;99.90;;;;;;5135347;27;20438;-72
2024/01/06 08:20:11;;;;;;;14.07;9.33;;;7.40;99.90;;;;;;5135143;27;20801;-71
2024/01/06 08:22:38;;;;;;;11.60;8.30;;;7.50;99.90;;;;;;5135470;27;20946;-73
2024/01/06 08:25:08;;;;;;;11.90;8.53;;;7.50;99.90;;;;;;5135388;27;20473;-72
2024/01/06 08:27:35;;;;;;;11.20;7.63;;;7.50;99.90;;;;;;5135135;27;20931;-72
2024/01/06 08:30:01;;;;;;;13.30;8.43;;;7.60;99.90;;;;;;5135027;27;20486;-72
2024/01/06 08:32:28;;;;;;;13.83;9.13;;;7.60;99.90;;;;;;5135367;27;20434;-72
2024/01/06 08:34:55;;;;;;;11.97;7.93;;;7.60;99.90;;;;;;5134220;28;20452;-72
2024/01/06 08:37:22;;;;;;;11.87;7.83;;;7.60;99.90;;;;;;5134445;28;20477;-72
2024/01/06 08:39:48;;;;;;;10.40;7.30;;;7.60;99.90;;;;;;5135320;28;20458;-71
2024/01/06 08:42:16;;;;;;;13.83;8.87;;;7.60;99.90;;;;;;5134790;28;20441;-72
2024/01/06 08:44:43;;;;;;;17.73;7.90;;;7.60;99.90;;;;;;5135475;27;20441;-72
2024/01/06 08:47:10;;;;;;;11.27;7.80;;;7.70;99.90;;;;;;5139117;27;20445;-72
2024/01/06 08:49:37;;;;;;;12.80;7.97;;;7.70;99.90;;;;;;5103889;27;20488;-72
2024/01/06 08:52:04;;;;;;;13.40;9.07;;;7.70;99.90;;;;;;5139342;27;20438;-72
2024/01/06 08:54:33;;;;;;;12.10;8.63;;;7.80;99.90;;;;;;5139183;27;20447;-72
2024/01/06 08:57:01;;;;;;;12.30;8.73;;;7.80;99.90;;;;;;5138816;27;20472;-72
2024/01/06 08:59:29;;;;;;;12.70;8.70;;;7.90;99.90;;;;;;5120903;27;20461;-72
2024/01/06 09:01:56;;;;;;;11.33;8.13;;;8.00;99.90;;;;;;5138672;27;20438;-72
2024/01/06 09:04:23;;;;;;;11.80;8.70;;;8.00;99.90;;;;;;5138978;27;20438;-72
2024/01/06 09:06:50;;;;;;;11.40;7.53;;;8.10;99.90;;;;;;5139185;27;20920;-72
2024/01/06 09:09:17;;;;;;;11.63;8.60;;;8.10;99.90;;;;;;5139370;27;20878;-71
2024/01/06 09:11:46;;;;;;;12.50;8.43;;;8.10;99.90;;;;;;5138900;27;20445;-72
2024/01/06 09:14:12;;;;;;;14.83;8.97;;;8.00;99.90;;;;;;5138794;27;20621;-71
2024/01/06 09:16:41;;;;;;;11.03;9.30;;;8.10;99.90;;;;;;5138001;27;20445;-72
2024/01/06 09:19:08;;;;;;;12.97;9.53;;;8.20;99.90;;;;;;5138669;27;20469;-72
2024/01/06 09:21:37;;;;;;;10.83;8.17;;;8.20;99.90;;;;;;5138735;27;20438;-72
2024/01/06 09:24:06;;;;;;;14.37;9.63;;;8.20;99.90;;;;;;5138537;27;20445;-72
2024/01/06 09:26:33;;;;;;;13.60;9.50;;;8.20;99.90;;;;;;5138449;27;20442;-72
2024/01/06 09:29:00;;;;;;;10.93;8.10;;;8.30;99.90;;;;;;5137774;27;20939;-72
2024/01/06 09:31:27;;;;;;;12.67;9.03;;;8.30;99.90;;;;;;5138283;27;20433;-72
2024/01/06 09:33:55;;;;;;;12.87;8.97;;;8.40;99.90;;;;;;5138381;27;20449;-72
2024/01/06 09:36:22;;;;;;;15.00;9.90;;;8.40;99.90;;;;;;5119530;27;20912;-72
2024/01/06 09:38:49;;;;;;;12.47;9.60;;;8.30;99.90;;;;;;5137706;27;20450;-72
2024/01/06 09:41:15;;;;;;;13.53;9.60;;;8.20;99.90;;;;;;5137793;27;20462;-72
2024/01/06 09:43:42;;;;;;;13.77;9.40;;;8.30;99.90;;;;;;5137913;27;20448;-72
2024/01/06 09:46:16;;;;;;;14.20;9.33;;;8.20;99.90;;;;;;5137613;27;20444;-72
2024/01/06 09:48:46;;;;;;;15.27;9.80;;;8.30;99.90;;;;;;5137953;27;20794;-72
2024/01/06 09:51:14;;;;;;;14.80;9.67;;;8.30;99.90;;;;;;5137769;27;20489;-72
2024/01/06 09:53:49;;;;;;;18.33;10.80;;;8.30;99.90;;;;;;5137669;27;20441;-72
2024/01/06 09:56:16;;;;;;;16.17;10.93;;;8.40;99.90;;;;;;5137447;27;20976;-72
2024/01/06 09:58:44;;;;;;;13.50;10.10;;;8.50;99.90;;;;;;5137347;27;20904;-72
2024/01/06 10:01:11;;;;;;;12.87;9.00;;;8.60;99.90;;;;;;5138617;27;20481;-72
2024/01/06 10:03:38;;;;;;;14.53;9.70;;;8.60;99.90;;;;;;5138179;27;20438;-71
2024/01/06 10:06:05;;;;;;;14.17;9.83;;;8.60;99.90;;;;;;5137121;27;20942;-71
2024/01/06 10:08:34;;;;;;;15.10;9.13;;;8.60;99.90;;;;;;5137702;27;20852;-72
2024/01/06 10:11:01;;;;;;;12.00;8.40;;;8.40;99.90;;;;;;5137498;27;20576;-71
2024/01/06 10:13:29;;;;;;;14.87;9.60;;;8.30;99.90;;;;;;5137462;27;20483;-71
2024/01/06 10:15:56;;;;;;;12.70;8.63;;;8.10;99.90;;;;;;5137248;27;20442;-71
2024/01/06 10:18:23;;;;;;;10.83;8.47;;;8.10;99.90;;;;;;5145103;27;20438;-71
2024/01/06 10:20:51;;;;;;;12.03;7.93;;;8.00;99.90;;;;;;5145332;27;20967;-72
2024/01/06 10:23:18;;;;;;;12.50;8.10;;;8.00;99.90;;;;;;5142943;27;20927;-71
2024/01/06 10:25:46;;;;;;;14.13;8.73;;;8.00;99.90;;;;;;5140552;27;20446;-69
2024/01/06 10:28:14;;;;;;;13.37;8.93;;;7.90;99.90;;;;;;5120416;27;20465;-75
2024/01/06 10:30:43;;;;;;;12.83;7.87;;;8.00;99.90;;;;;;5138188;27;20474;-74
2024/01/06 10:33:10;;;;;;;12.03;8.93;;;8.10;99.90;;;;;;5120357;27;20454;-70
2024/01/06 10:35:37;;;;;;;10.43;8.00;;;8.10;99.90;;;;;;5119851;27;20524;-72
2024/01/06 10:38:05;;;;;;;11.93;8.37;;;8.20;99.90;;;;;;5138432;27;20461;-71
2024/01/06 10:40:32;;;;;;;12.03;8.57;;;8.30;99.90;;;;;;5137594;27;20462;-71
2024/01/06 10:43:01;;;;;;;12.90;8.37;;;8.30;99.90;;;;;;5137699;27;20446;-72
2024/01/06 10:45:30;;;;;;;9.50;7.33;;;8.30;99.90;;;;;;5137316;27;20952;-72
2024/01/06 10:47:57;;;;;;;10.87;8.13;;;8.30;99.90;;;;;;5137150;27;20481;-73
2024/01/06 10:50:28;;;;;;;12.63;8.40;;;8.40;99.90;;;;;;5119262;27;20505;-73
2024/01/06 10:52:57;;;;;;;9.60;7.50;;;8.40;99.90;;;;;;5137269;27;20429;-72
2024/01/06 10:55:27;;;;;;;10.90;8.10;;;8.50;99.90;;;;;;5136976;27;20442;-74
2024/01/06 10:57:56;;;;;;;13.80;9.27;;;8.50;99.90;;;;;;5142800;27;20458;-78
2024/01/06 11:00:27;;;;;;;14.10;10.30;;;8.50;99.90;;;;;;5138284;27;20523;-75
2024/01/06 11:02:56;;;;;;;17.27;11.87;;;8.50;99.90;;;;;;5137241;27;20422;-75
2024/01/06 11:05:24;;;;;;;17.00;12.40;;;8.50;99.90;;;;;;5136800;27;20453;-76
2024/01/06 11:07:55;;;;;;;16.10;11.00;;;8.60;99.90;;;;;;5136211;27;20438;-75
2024/01/06 11:10:23;;;;;;;17.53;11.60;;;8.60;99.90;;;;;;5138827;27;20833;-75
2024/01/06 11:13:11;;;;;;;15.30;11.37;;;8.60;99.90;;;;;;5137028;27;20449;-75
2024/01/06 11:15:44;;;;;;;14.20;10.60;;;8.60;99.90;;;;;;5136705;27;20426;-74
2024/01/06 11:18:33;;;;;;;15.50;10.90;;;8.50;99.90;;;;;;5137262;27;20414;-74
2024/01/06 11:21:24;;;;;;;14.83;9.23;;;8.50;99.90;;;;;;5137168;27;20478;-74
2024/01/06 11:24:26;;;;;;;13.20;10.30;;;8.50;99.90;;;;;;5118120;27;20534;-72
2024/01/06 11:26:56;;;;;;;14.57;10.70;;;8.60;99.90;;;;;;5053663;28;20487;-73
2024/01/06 11:29:23;;;;;;;15.17;11.30;;;8.60;99.90;;;;;;5036892;28;20481;-72
2024/01/06 11:32:20;;;;;;;14.50;11.07;;;8.60;99.90;;;;;;5093439;27;20572;-72
2024/01/06 11:34:52;;;;;;;16.23;11.23;;;8.60;99.90;;;;;;5136086;27;20899;-72
2024/01/06 11:37:21;;;;;;;15.20;11.50;;;8.60;99.90;;;;;;5136005;27;20449;-73
2024/01/06 11:39:47;;;;;;;16.50;10.70;;;8.70;99.90;;;;;;5136296;27;20488;-73
2024/01/06 11:42:15;;;;;;;16.80;12.00;;;8.70;99.90;;;;;;5136094;27;20939;-73
2024/01/06 11:44:45;;;;;;;15.10;10.53;;;8.70;99.90;;;;;;5136028;27;20444;-72
2024/01/06 11:47:13;;;;;;;16.50;11.33;;;8.70;99.90;;;;;;5136130;27;20430;-73
2024/01/06 11:49:45;;;;;;;12.33;9.83;;;8.80;99.90;;;;;;5135824;27;20458;-72
2024/01/06 11:52:13;;;;;;;14.53;10.40;;;8.80;99.90;;;;;;5117805;27;20438;-73
2024/01/06 11:54:40;;;;;;;15.73;10.93;;;8.70;99.90;;;;;;5118172;27;20529;-72
2024/01/06 11:57:07;;;;;;;13.57;10.30;;;8.70;99.90;;;;;;5137895;27;20453;-72
2024/01/06 11:59:33;;;;;;;17.67;10.60;;;8.70;99.90;;;;;;5143174;27;20471;-73
2024/01/06 12:02:01;;;;;;;15.73;11.30;;;8.70;99.90;;;;;;5142993;27;20442;-72
2024/01/06 12:04:28;;;;;;;17.33;11.63;;;8.70;99.90;;;;;;5141789;27;20445;-73
2024/01/06 12:07:06;;;;;;;17.40;12.00;;;8.70;99.90;;;;;;5141910;27;20450;-73
2024/01/06 12:09:32;;;;;;;18.27;12.50;;;8.70;99.90;;;;;;5141499;27;20465;-73
2024/01/06 12:12:02;;;;;;;15.90;11.40;;;8.60;99.90;;;;;;5141215;27;20604;-72
2024/01/06 12:14:30;;;;;;;18.37;11.90;;;8.60;99.90;;;;;;5122884;27;20825;-72
2024/01/06 12:17:02;;;;;;;18.40;12.33;;;8.60;99.90;;;;;;5140229;27;20449;-73
2024/01/06 12:19:32;;;;;;;16.67;11.23;;;8.60;99.90;;;;;;5120562;27;20538;-73
2024/01/06 12:22:00;;;;;;;14.73;10.63;;;8.60;99.90;;;;;;5138957;27;20470;-77
2024/01/06 12:24:28;;;;;;;14.17;11.17;;;8.60;99.90;;;;;;5145816;27;20438;-77
2024/01/06 12:26:57;;;;;;;15.10;10.80;;;8.50;99.90;;;;;;5144840;27;20445;-77
2024/01/06 12:29:26;;;;;;;15.20;10.60;;;8.50;99.90;;;;;;5142027;27;20466;-76
2024/01/06 12:31:53;;;;;;;15.23;10.13;;;8.50;99.90;;;;;;5149464;27;20469;-77
2024/01/06 12:34:22;;;;;;;15.43;10.20;;;8.50;99.90;;;;;;5151588;27;20446;-78
2024/01/06 12:36:49;;;;;;;15.90;10.40;;;8.40;99.90;;;;;;5143640;28;20994;-78
2024/01/06 12:39:18;;;;;;;16.33;11.37;;;8.40;99.90;;;;;;5143954;28;20438;-78
2024/01/06 12:41:46;;;;;;;15.03;10.03;;;8.40;99.90;;;;;;5143062;28;20441;-78
2024/01/06 12:44:13;;;;;;;16.40;11.30;;;8.40;99.90;;;;;;5142893;28;20481;-78